createdAt,value
2023-03-05T00:00:50.437Z,0.00
2023-03-05T00:01:50.389Z,0.00
2023-03-05T00:02:50.481Z,0.00
2023-03-05T00:03:50.409Z,0.00
2023-03-05T00:04:50.364Z,0.00
2023-03-05T00:05:50.385Z,0.00
2023-03-05T00:06:50.325Z,0.00
2023-03-05T00:07:50.315Z,0.00
2023-03-05T00:08:50.328Z,0.00
2023-03-05T00:09:50.291Z,0.00
2023-03-05T00:10:50.503Z,0.00
2023-03-05T00:11:50.288Z,0.00
2023-03-05T00:12:50.251Z,0.00
2023-03-05T00:13:50.279Z,0.00
2023-03-05T00:14:50.234Z,0.00
2023-03-05T00:15:50.235Z,0.00
2023-03-05T00:16:50.395Z,0.00
2023-03-05T00:17:50.202Z,0.00
2023-03-05T00:18:50.225Z,0.00
2023-03-05T00:19:50.184Z,0.00
2023-03-05T00:20:50.152Z,0.00
2023-03-05T00:21:50.155Z,0.00
2023-03-05T00:22:50.331Z,0.00
2023-03-05T00:23:50.143Z,0.00
2023-03-05T00:24:50.121Z,0.00
2023-03-05T00:25:50.104Z,0.00
2023-03-05T00:26:50.108Z,0.00
2023-03-05T00:27:50.097Z,0.00
2023-03-05T00:28:50.344Z,0.00
2023-03-05T00:29:50.072Z,0.00
2023-03-05T00:30:50.094Z,0.00
2023-03-05T00:31:50.039Z,0.00
2023-03-05T00:32:50.036Z,0.00
2023-03-05T00:33:50.017Z,0.00
2023-03-05T00:34:50.053Z,0.00
2023-03-05T00:35:50.040Z,0.00
2023-03-05T00:36:49.996Z,0.00
2023-03-05T00:37:49.995Z,0.00
2023-03-05T00:38:49.959Z,0.00
2023-03-05T00:39:49.974Z,0.00
2023-03-05T00:40:49.957Z,0.00
2023-03-05T00:41:49.959Z,0.00
2023-03-05T00:42:49.918Z,0.00
2023-03-05T00:43:49.909Z,0.00
2023-03-05T00:44:49.910Z,0.00
2023-03-05T00:45:49.915Z,0.00
2023-03-05T00:46:49.989Z,0.00
2023-03-05T00:47:49.884Z,0.00
2023-03-05T00:48:49.846Z,0.00
2023-03-05T00:49:49.885Z,0.00
2023-03-05T00:50:49.829Z,0.00
2023-03-05T00:51:49.849Z,0.00
2023-03-05T00:52:49.847Z,0.00
2023-03-05T00:53:49.805Z,0.00
2023-03-05T00:54:49.776Z,0.00
2023-03-05T00:55:49.781Z,0.00
2023-03-05T00:56:49.761Z,0.00
2023-03-05T00:57:49.753Z,0.00
2023-03-05T00:58:49.756Z,0.00
2023-03-05T00:59:49.727Z,0.00
2023-03-05T01:00:49.719Z,0.00
2023-03-05T01:01:49.716Z,0.00
2023-03-05T01:02:49.695Z,0.00
2023-03-05T01:03:49.668Z,0.00
2023-03-05T01:04:49.751Z,0.00
2023-03-05T01:05:49.659Z,0.00
2023-03-05T01:06:49.643Z,0.00
2023-03-05T01:07:49.620Z,0.00
2023-03-05T01:08:49.611Z,0.00
2023-03-05T01:09:49.584Z,0.00
2023-03-05T01:10:49.622Z,0.00
2023-03-05T01:11:49.615Z,0.00
2023-03-05T01:12:49.580Z,0.00
2023-03-05T01:13:49.543Z,0.00
2023-03-05T01:14:49.541Z,0.00
2023-03-05T01:15:49.570Z,0.00
2023-03-05T01:16:49.499Z,0.00
2023-03-05T01:17:49.508Z,0.00
2023-03-05T01:18:49.491Z,0.00
2023-03-05T01:19:49.465Z,0.00
2023-03-05T01:20:49.457Z,0.00
2023-03-05T01:21:49.487Z,0.00
2023-03-05T01:22:49.446Z,0.00
2023-03-05T01:23:49.430Z,0.00
2023-03-05T01:24:49.413Z,0.00
2023-03-05T01:25:49.395Z,0.00
2023-03-05T01:26:49.404Z,0.00
2023-03-05T01:27:49.405Z,0.00
2023-03-05T01:28:49.389Z,0.00
2023-03-05T01:29:49.345Z,0.00
2023-03-05T01:30:49.344Z,0.00
2023-03-05T01:31:49.407Z,0.00
2023-03-05T01:32:49.346Z,0.00
2023-03-05T01:33:49.313Z,0.00
2023-03-05T01:34:49.297Z,0.00
2023-03-05T01:35:49.364Z,0.00
2023-03-05T01:36:49.273Z,0.00
2023-03-05T01:37:49.255Z,0.00
2023-03-05T01:38:49.282Z,0.00
2023-03-05T01:39:49.234Z,0.00
2023-03-05T01:40:49.293Z,0.00
2023-03-05T01:41:49.213Z,0.00
2023-03-05T01:42:49.221Z,0.00
2023-03-05T01:43:49.196Z,0.00
2023-03-05T01:44:49.216Z,0.00
2023-03-05T01:45:49.223Z,0.00
2023-03-05T01:46:49.158Z,0.00
2023-03-05T01:47:49.153Z,0.00
2023-03-05T01:48:49.139Z,0.00
2023-03-05T01:49:49.126Z,0.00
2023-03-05T01:50:49.150Z,0.00
2023-03-05T01:51:49.095Z,0.00
2023-03-05T01:52:49.110Z,0.00
2023-03-05T01:53:49.091Z,0.00
2023-03-05T01:54:49.066Z,0.00
2023-03-05T01:55:49.047Z,0.00
2023-03-05T01:56:49.067Z,0.00
2023-03-05T01:57:49.036Z,0.00
2023-03-05T01:58:49.049Z,0.00
2023-03-05T01:59:49.034Z,0.00
2023-03-05T02:00:49.036Z,0.00
2023-03-05T02:01:49.027Z,0.00
2023-03-05T02:02:49.011Z,0.00
2023-03-05T02:03:48.992Z,0.00
2023-03-05T02:04:48.951Z,0.00
2023-03-05T02:05:48.954Z,0.00
2023-03-05T02:06:48.927Z,0.00
2023-03-05T02:07:48.937Z,0.00
2023-03-05T02:08:48.905Z,0.00
2023-03-05T02:09:48.898Z,0.00
2023-03-05T02:10:48.888Z,0.00
2023-03-05T02:11:48.905Z,0.00
2023-03-05T02:12:48.881Z,0.00
2023-03-05T02:13:48.887Z,0.00
2023-03-05T02:14:48.852Z,0.00
2023-03-05T02:15:48.822Z,0.00
2023-03-05T02:16:48.905Z,0.00
2023-03-05T02:17:48.799Z,0.00
2023-03-05T02:18:48.789Z,0.00
2023-03-05T02:19:48.839Z,0.00
2023-03-05T02:20:48.762Z,0.00
2023-03-05T02:21:48.765Z,0.00
2023-03-05T02:22:48.762Z,0.00
2023-03-05T02:23:48.759Z,0.00
2023-03-05T02:24:48.748Z,0.00
2023-03-05T02:25:48.759Z,0.00
2023-03-05T02:26:48.702Z,0.00
2023-03-05T02:27:48.705Z,0.00
2023-03-05T02:28:48.690Z,0.00
2023-03-05T02:29:48.676Z,0.00
2023-03-05T02:30:48.650Z,0.00
2023-03-05T02:31:48.747Z,0.00
2023-03-05T02:32:48.659Z,0.00
2023-03-05T02:33:48.621Z,0.00
2023-03-05T02:34:48.652Z,0.00
2023-03-05T02:35:48.613Z,0.00
2023-03-05T02:36:48.693Z,0.00
2023-03-05T02:37:48.576Z,0.00
2023-03-05T02:38:48.562Z,0.00
2023-03-05T02:39:48.560Z,0.00
2023-03-05T02:40:48.552Z,0.00
2023-03-05T02:41:48.542Z,0.00
2023-03-05T02:42:48.542Z,0.00
2023-03-05T02:43:48.498Z,0.00
2023-03-05T02:44:48.568Z,0.00
2023-03-05T02:45:48.504Z,0.00
2023-03-05T02:46:48.520Z,0.00
2023-03-05T02:47:48.446Z,0.00
2023-03-05T02:48:48.496Z,0.00
2023-03-05T02:49:48.435Z,0.00
2023-03-05T02:50:48.433Z,0.00
2023-03-05T02:51:48.421Z,0.00
2023-03-05T02:52:48.397Z,0.00
2023-03-05T02:53:48.380Z,0.00
2023-03-05T02:54:48.402Z,0.00
2023-03-05T02:55:48.365Z,0.00
2023-03-05T02:56:48.346Z,0.00
2023-03-05T02:57:48.358Z,0.00
2023-03-05T02:58:48.329Z,0.00
2023-03-05T02:59:48.324Z,0.00
2023-03-05T03:00:48.357Z,0.00
2023-03-05T03:01:48.284Z,0.00
2023-03-05T03:02:48.314Z,0.00
2023-03-05T03:03:48.267Z,0.00
2023-03-05T03:04:48.269Z,0.00
2023-03-05T03:05:48.322Z,0.00
2023-03-05T03:06:48.240Z,0.00
2023-03-05T03:07:48.232Z,0.00
2023-03-05T03:08:48.198Z,0.00
2023-03-05T03:09:48.188Z,0.00
2023-03-05T03:10:48.194Z,0.00
2023-03-05T03:11:48.234Z,0.00
2023-03-05T03:12:48.160Z,0.00
2023-03-05T03:13:48.186Z,0.00
2023-03-05T03:14:48.137Z,0.00
2023-03-05T03:15:48.133Z,0.00
2023-03-05T03:16:48.195Z,0.00
2023-03-05T03:17:48.139Z,0.00
2023-03-05T03:18:48.137Z,0.00
2023-03-05T03:19:48.104Z,0.00
2023-03-05T03:20:48.100Z,0.00
2023-03-05T03:21:48.067Z,0.00
2023-03-05T03:22:48.103Z,0.00
2023-03-05T03:23:48.030Z,0.00
2023-03-05T03:24:48.022Z,0.00
2023-03-05T03:25:48.022Z,0.00
2023-03-05T03:26:48.003Z,0.00
2023-03-05T03:27:48.031Z,0.00
2023-03-05T03:28:47.974Z,0.00
2023-03-05T03:29:47.966Z,0.00
2023-03-05T03:30:47.971Z,0.00
2023-03-05T03:31:47.969Z,0.00
2023-03-05T03:32:47.941Z,0.00
2023-03-05T03:33:47.965Z,0.00
2023-03-05T03:34:47.921Z,0.00
2023-03-05T03:35:47.931Z,0.00
2023-03-05T03:36:47.907Z,0.00
2023-03-05T03:37:47.911Z,0.00
2023-03-05T03:38:47.875Z,0.00
2023-03-05T03:39:47.900Z,0.00
2023-03-05T03:40:47.837Z,0.00
2023-03-05T03:41:47.827Z,0.00
2023-03-05T03:42:47.819Z,0.00
2023-03-05T03:43:47.827Z,0.00
2023-03-05T03:44:47.852Z,0.00
2023-03-05T03:45:47.827Z,0.00
2023-03-05T03:46:47.772Z,0.00
2023-03-05T03:47:47.778Z,0.00
2023-03-05T03:48:47.741Z,0.00
2023-03-05T03:49:47.740Z,0.00
2023-03-05T03:50:47.779Z,0.00
2023-03-05T03:51:47.745Z,0.00
2023-03-05T03:52:47.728Z,0.00
2023-03-05T03:53:47.693Z,0.00
2023-03-05T03:54:47.683Z,0.00
2023-03-05T03:55:47.692Z,0.00
2023-03-05T03:56:47.668Z,0.00
2023-03-05T03:57:47.672Z,0.00
2023-03-05T03:58:47.633Z,0.00
2023-03-05T03:59:47.620Z,0.00
2023-03-05T04:00:47.645Z,0.00
2023-03-05T04:01:47.630Z,0.00
2023-03-05T04:02:47.601Z,0.00
2023-03-05T04:03:47.579Z,0.00
2023-03-05T04:04:47.573Z,0.00
2023-03-05T04:05:47.577Z,0.00
2023-03-05T04:06:47.572Z,0.00
2023-03-05T04:07:47.559Z,0.00
2023-03-05T04:08:47.528Z,0.00
2023-03-05T04:09:47.531Z,0.00
2023-03-05T04:10:47.495Z,0.00
2023-03-05T04:11:47.486Z,0.00
2023-03-05T04:12:47.483Z,0.00
2023-03-05T04:13:47.482Z,0.00
2023-03-05T04:14:47.478Z,0.00
2023-03-05T04:15:47.464Z,0.00
2023-03-05T04:16:47.422Z,0.00
2023-03-05T04:17:47.429Z,0.00
2023-03-05T04:18:47.413Z,0.00
2023-03-05T04:19:47.446Z,0.00
2023-03-05T04:20:47.374Z,0.00
2023-03-05T04:21:47.420Z,0.00
2023-03-05T04:22:47.377Z,0.00
2023-03-05T04:23:47.343Z,0.00
2023-03-05T04:24:47.385Z,0.00
2023-03-05T04:25:47.388Z,0.00
2023-03-05T04:26:47.314Z,0.00
2023-03-05T04:27:47.312Z,0.00
2023-03-05T04:28:47.338Z,0.00
2023-03-05T04:29:47.264Z,0.00
2023-03-05T04:30:47.310Z,0.00
2023-03-05T04:31:47.280Z,0.00
2023-03-05T04:32:47.259Z,0.00
2023-03-05T04:33:47.250Z,0.00
2023-03-05T04:34:47.217Z,0.00
2023-03-05T04:35:47.275Z,0.00
2023-03-05T04:36:47.214Z,0.00
2023-03-05T04:37:47.169Z,0.00
2023-03-05T04:38:47.172Z,0.00
2023-03-05T04:39:47.148Z,0.00
2023-03-05T04:40:47.149Z,0.00
2023-03-05T04:41:47.165Z,0.00
2023-03-05T04:42:47.130Z,0.00
2023-03-05T04:43:47.116Z,0.00
2023-03-05T04:44:47.088Z,0.00
2023-03-05T04:45:47.077Z,0.00
2023-03-05T04:46:47.115Z,0.00
2023-03-05T04:47:47.102Z,0.00
2023-03-05T04:48:47.070Z,0.00
2023-03-05T04:49:47.029Z,0.00
2023-03-05T04:50:47.016Z,0.00
2023-03-05T04:51:47.015Z,0.00
2023-03-05T04:52:47.062Z,0.00
2023-03-05T04:53:47.089Z,0.00
2023-03-05T04:54:46.978Z,0.00
2023-03-05T04:55:46.966Z,0.00
2023-03-05T04:56:46.992Z,0.00
2023-03-05T04:57:46.957Z,0.00
2023-03-05T04:58:46.997Z,0.00
2023-03-05T04:59:46.986Z,0.00
2023-03-05T05:00:46.965Z,0.00
2023-03-05T05:01:47.050Z,0.00
2023-03-05T05:02:47.004Z,0.00
2023-03-05T05:03:46.997Z,0.00
2023-03-05T05:04:46.874Z,0.00
2023-03-05T05:05:46.868Z,0.00
2023-03-05T05:06:46.835Z,0.00
2023-03-05T05:07:46.849Z,0.00
2023-03-05T05:08:46.873Z,0.00
2023-03-05T05:09:46.813Z,0.00
2023-03-05T05:10:46.817Z,0.00
2023-03-05T05:11:46.772Z,0.00
2023-03-05T05:12:46.772Z,0.00
2023-03-05T05:13:46.756Z,0.00
2023-03-05T05:14:46.751Z,0.00
2023-03-05T05:15:46.749Z,0.00
2023-03-05T05:16:46.748Z,0.00
2023-03-05T05:17:46.711Z,0.00
2023-03-05T05:18:46.704Z,0.00
2023-03-05T05:19:46.684Z,0.00
2023-03-05T05:20:46.676Z,0.00
2023-03-05T05:21:46.691Z,0.00
2023-03-05T05:22:46.657Z,0.00
2023-03-05T05:23:46.646Z,0.00
2023-03-05T05:24:46.675Z,0.00
2023-03-05T05:25:46.614Z,0.00
2023-03-05T05:26:46.601Z,0.00
2023-03-05T05:27:46.607Z,0.00
2023-03-05T05:28:46.617Z,0.00
2023-03-05T05:29:46.561Z,0.00
2023-03-05T05:30:46.593Z,0.00
2023-03-05T05:31:46.646Z,0.00
2023-03-05T05:32:46.553Z,0.00
2023-03-05T05:33:48.759Z,0.00
2023-03-05T05:34:46.503Z,0.00
2023-03-05T05:35:46.550Z,0.00
2023-03-05T05:36:46.489Z,0.00
2023-03-05T05:37:46.476Z,0.00
2023-03-05T05:38:46.466Z,0.00
2023-03-05T05:39:46.458Z,0.00
2023-03-05T05:40:46.453Z,0.00
2023-03-05T05:41:46.429Z,0.00
2023-03-05T05:42:46.408Z,0.00
2023-03-05T05:43:46.420Z,0.00
2023-03-05T05:44:46.432Z,0.00
2023-03-05T05:45:46.477Z,4.00
2023-03-05T05:46:46.420Z,0.00
2023-03-05T05:47:46.378Z,0.00
2023-03-05T05:48:46.372Z,4.00
2023-03-05T05:49:46.333Z,4.00
2023-03-05T05:50:46.353Z,0.00
2023-03-05T05:51:46.311Z,4.00
2023-03-05T05:52:46.312Z,4.00
2023-03-05T05:53:46.280Z,4.00
2023-03-05T05:54:46.274Z,8.00
2023-03-05T05:55:46.265Z,4.00
2023-03-05T05:56:46.282Z,4.00
2023-03-05T05:57:46.232Z,8.00
2023-03-05T05:58:46.226Z,8.00
2023-03-05T05:59:46.214Z,8.00
2023-03-05T06:00:46.214Z,8.00
2023-03-05T06:01:46.205Z,12.00
2023-03-05T06:02:46.229Z,12.00
2023-03-05T06:03:46.158Z,12.00
2023-03-05T06:04:46.153Z,16.00
2023-03-05T06:05:46.155Z,16.00
2023-03-05T06:06:46.125Z,20.00
2023-03-05T06:07:46.141Z,24.00
2023-03-05T06:08:46.121Z,24.00
2023-03-05T06:09:46.095Z,28.00
2023-03-05T06:10:46.098Z,32.00
2023-03-05T06:11:46.083Z,32.00
2023-03-05T06:12:46.069Z,36.00
2023-03-05T06:13:46.071Z,40.00
2023-03-05T06:14:46.039Z,36.00
2023-03-05T06:15:46.024Z,44.00
2023-03-05T06:16:46.066Z,44.00
2023-03-05T06:17:46.038Z,48.00
2023-03-05T06:18:46.006Z,52.00
2023-03-05T06:19:46.029Z,60.00
2023-03-05T06:20:45.986Z,64.00
2023-03-05T06:21:45.948Z,72.00
2023-03-05T06:22:45.933Z,80.00
2023-03-05T06:23:45.942Z,84.00
2023-03-05T06:24:45.992Z,92.00
2023-03-05T06:25:45.946Z,96.00
2023-03-05T06:26:45.963Z,104.00
2023-03-05T06:27:45.911Z,108.00
2023-03-05T06:28:45.877Z,108.00
2023-03-05T06:29:45.861Z,116.00
2023-03-05T06:30:45.868Z,120.00
2023-03-05T06:31:45.872Z,128.00
2023-03-05T06:32:45.837Z,140.00
2023-03-05T06:33:45.993Z,144.00
2023-03-05T06:34:45.804Z,152.00
2023-03-05T06:35:45.823Z,164.00
2023-03-05T06:36:45.811Z,176.00
2023-03-05T06:37:45.765Z,188.00
2023-03-05T06:38:46.528Z,204.00
2023-03-05T06:39:45.735Z,216.00
2023-03-05T06:40:45.725Z,224.00
2023-03-05T06:41:45.737Z,236.00
2023-03-05T06:42:45.735Z,244.00
2023-03-05T06:43:45.693Z,248.00
2023-03-05T06:44:47.248Z,256.00
2023-03-05T06:45:45.770Z,256.00
2023-03-05T06:46:45.669Z,248.00
2023-03-05T06:47:45.652Z,252.00
2023-03-05T06:48:45.651Z,260.00
2023-03-05T06:49:45.632Z,268.00
2023-03-05T06:50:45.617Z,268.00
2023-03-05T06:51:45.612Z,276.00
2023-03-05T06:52:45.590Z,276.00
2023-03-05T06:53:47.245Z,272.00
2023-03-05T06:54:45.572Z,280.00
2023-03-05T06:55:45.557Z,300.00
2023-03-05T06:56:45.550Z,328.00
2023-03-05T06:57:45.578Z,352.00
2023-03-05T06:58:45.525Z,364.00
2023-03-05T06:59:45.553Z,376.00
2023-03-05T07:00:45.498Z,388.00
2023-03-05T07:01:45.581Z,408.00
2023-03-05T07:02:45.618Z,428.00
2023-03-05T07:03:45.462Z,448.00
2023-03-05T07:04:45.482Z,468.00
2023-03-05T07:05:45.448Z,480.00
2023-03-05T07:06:45.436Z,492.00
2023-03-05T07:07:45.438Z,500.00
2023-03-05T07:08:45.393Z,508.00
2023-03-05T07:09:45.387Z,512.00
2023-03-05T07:10:45.388Z,520.00
2023-03-05T07:11:45.362Z,528.00
2023-03-05T07:12:45.348Z,528.00
2023-03-05T07:13:45.330Z,532.00
2023-03-05T07:14:45.347Z,540.00
2023-03-05T07:15:45.343Z,544.00
2023-03-05T07:16:45.388Z,548.00
2023-03-05T07:17:45.320Z,544.00
2023-03-05T07:18:45.289Z,536.00
2023-03-05T07:19:45.286Z,532.00
2023-03-05T07:20:45.292Z,524.00
2023-03-05T07:21:45.335Z,516.00
2023-03-05T07:22:45.261Z,508.00
2023-03-05T07:23:45.226Z,500.00
2023-03-05T07:24:45.201Z,500.00
2023-03-05T07:25:45.199Z,500.00
2023-03-05T07:26:46.445Z,508.00
2023-03-05T07:27:45.200Z,512.00
2023-03-05T07:28:45.170Z,520.00
2023-03-05T07:29:45.162Z,528.00
2023-03-05T07:30:45.175Z,536.00
2023-03-05T07:31:45.191Z,544.00
2023-03-05T07:32:45.113Z,552.00
2023-03-05T07:33:45.139Z,560.00
2023-03-05T07:34:45.109Z,584.00
2023-03-05T07:35:45.095Z,600.00
2023-03-05T07:36:45.062Z,620.00
2023-03-05T07:37:45.044Z,636.00
2023-03-05T07:38:45.145Z,640.00
2023-03-05T07:39:46.941Z,648.00
2023-03-05T07:40:45.025Z,660.00
2023-03-05T07:41:45.002Z,668.00
2023-03-05T07:42:45.158Z,672.00
2023-03-05T07:43:44.982Z,668.00
2023-03-05T07:44:45.035Z,660.00
2023-03-05T07:45:45.107Z,660.00
2023-03-05T07:46:44.981Z,652.00
2023-03-05T07:47:44.938Z,648.00
2023-03-05T07:48:44.944Z,640.00
2023-03-05T07:49:44.936Z,624.00
2023-03-05T07:50:44.928Z,600.00
2023-03-05T07:51:44.908Z,588.00
2023-03-05T07:52:44.878Z,584.00
2023-03-05T07:53:44.866Z,580.00
2023-03-05T07:54:44.854Z,576.00
2023-03-05T07:55:44.919Z,576.00
2023-03-05T07:56:44.864Z,580.00
2023-03-05T07:57:44.834Z,580.00
2023-03-05T07:58:45.470Z,568.00
2023-03-05T07:59:44.807Z,568.00
2023-03-05T08:00:44.795Z,572.00
2023-03-05T08:01:44.790Z,588.00
2023-03-05T08:02:44.802Z,616.00
2023-03-05T08:03:44.808Z,648.00
2023-03-05T08:04:44.736Z,684.00
2023-03-05T08:05:44.725Z,724.00
2023-03-05T08:06:44.859Z,752.00
2023-03-05T08:07:44.700Z,784.00
2023-03-05T08:08:45.937Z,820.00
2023-03-05T08:09:44.685Z,864.00
2023-03-05T08:10:44.723Z,892.00
2023-03-05T08:11:44.669Z,916.00
2023-03-05T08:12:44.629Z,940.00
2023-03-05T08:13:44.643Z,968.00
2023-03-05T08:14:44.645Z,992.00
2023-03-05T08:15:44.662Z,1004.00
2023-03-05T08:16:47.199Z,1012.00
2023-03-05T08:17:44.575Z,1008.00
2023-03-05T08:18:44.601Z,1020.00
2023-03-05T08:19:44.604Z,1036.00
2023-03-05T08:20:44.564Z,1056.00
2023-03-05T08:21:44.548Z,1092.00
2023-03-05T08:22:44.557Z,1132.00
2023-03-05T08:23:44.514Z,1192.00
2023-03-05T08:24:44.499Z,1280.00
2023-03-05T08:25:44.508Z,1360.00
2023-03-05T08:26:44.478Z,1428.00
2023-03-05T08:27:44.477Z,1484.00
2023-03-05T08:28:44.477Z,1532.00
2023-03-05T08:29:44.438Z,1592.00
2023-03-05T08:30:44.461Z,1668.00
2023-03-05T08:31:44.456Z,1736.00
2023-03-05T08:32:44.408Z,1792.00
2023-03-05T08:33:44.413Z,1812.00
2023-03-05T08:34:44.422Z,1824.00
2023-03-05T08:35:44.608Z,1852.00
2023-03-05T08:36:44.418Z,1876.00
2023-03-05T08:37:44.431Z,1900.00
2023-03-05T08:38:44.329Z,1912.00
2023-03-05T08:39:44.406Z,1916.00
2023-03-05T08:40:44.305Z,1944.00
2023-03-05T08:41:44.349Z,1952.00
2023-03-05T08:42:44.319Z,1944.00
2023-03-05T08:43:44.317Z,1924.00
2023-03-05T08:44:47.913Z,1916.00
2023-03-05T08:45:44.261Z,1904.00
2023-03-05T08:46:44.336Z,1904.00
2023-03-05T08:47:44.292Z,1888.00
2023-03-05T08:48:44.320Z,1868.00
2023-03-05T08:49:44.211Z,1844.00
2023-03-05T08:50:44.212Z,1808.00
2023-03-05T08:51:44.207Z,1800.00
2023-03-05T08:52:44.188Z,1840.00
2023-03-05T08:53:44.182Z,1888.00
2023-03-05T08:54:44.140Z,1936.00
2023-03-05T08:55:44.296Z,1964.00
2023-03-05T08:56:44.154Z,1988.00
2023-03-05T08:57:44.120Z,2008.00
2023-03-05T08:58:44.115Z,2008.00
2023-03-05T08:59:44.122Z,2008.00
2023-03-05T09:00:44.111Z,2008.00
2023-03-05T09:01:44.141Z,2008.00
2023-03-05T09:02:44.081Z,2020.00
2023-03-05T09:03:44.060Z,2016.00
2023-03-05T09:04:44.072Z,2000.00
2023-03-05T09:05:44.034Z,1972.00
2023-03-05T09:06:44.027Z,1940.00
2023-03-05T09:07:44.004Z,1900.00
2023-03-05T09:08:43.994Z,1848.00
2023-03-05T09:09:44.001Z,1784.00
2023-03-05T09:10:43.997Z,1696.00
2023-03-05T09:11:43.973Z,1636.00
2023-03-05T09:12:43.955Z,1624.00
2023-03-05T09:13:43.957Z,1608.00
2023-03-05T09:14:43.944Z,1624.00
2023-03-05T09:15:43.935Z,1644.00
2023-03-05T09:16:43.939Z,1664.00
2023-03-05T09:17:43.905Z,1672.00
2023-03-05T09:18:43.887Z,1680.00
2023-03-05T09:19:43.866Z,1672.00
2023-03-05T09:20:43.864Z,1672.00
2023-03-05T09:21:43.873Z,1672.00
2023-03-05T09:22:43.832Z,1648.00
2023-03-05T09:23:43.835Z,1644.00
2023-03-05T09:24:43.833Z,1664.00
2023-03-05T09:25:43.794Z,1680.00
2023-03-05T09:26:43.796Z,1688.00
2023-03-05T09:27:43.819Z,1700.00
2023-03-05T09:28:43.772Z,1704.00
2023-03-05T09:29:43.789Z,1704.00
2023-03-05T09:30:43.773Z,1688.00
2023-03-05T09:31:43.759Z,1688.00
2023-03-05T09:32:43.766Z,1724.00
2023-03-05T09:33:43.717Z,1760.00
2023-03-05T09:34:43.691Z,1796.00
2023-03-05T09:35:43.840Z,1828.00
2023-03-05T09:36:43.673Z,1888.00
2023-03-05T09:37:43.669Z,1944.00
2023-03-05T09:38:43.654Z,1984.00
2023-03-05T09:39:43.656Z,1988.00
2023-03-05T09:40:43.633Z,1988.00
2023-03-05T09:41:43.605Z,1992.00
2023-03-05T09:42:43.604Z,1992.00
2023-03-05T09:43:43.607Z,1976.00
2023-03-05T09:44:43.618Z,1948.00
2023-03-05T09:45:43.649Z,1904.00
2023-03-05T09:46:43.569Z,1880.00
2023-03-05T09:47:43.583Z,1900.00
2023-03-05T09:48:43.545Z,1972.00
2023-03-05T09:49:43.537Z,2068.00
2023-03-05T09:50:43.534Z,2132.00
2023-03-05T09:51:43.525Z,2160.00
2023-03-05T09:52:43.518Z,2148.00
2023-03-05T09:53:43.491Z,2128.00
2023-03-05T09:54:43.492Z,2096.00
2023-03-05T09:55:43.464Z,2048.00
2023-03-05T09:56:43.458Z,2040.00
2023-03-05T09:57:43.448Z,2096.00
2023-03-05T09:58:43.415Z,2168.00
2023-03-05T09:59:43.397Z,2244.00
2023-03-05T10:00:43.392Z,2268.00
2023-03-05T10:01:43.388Z,2276.00
2023-03-05T10:02:43.442Z,2300.00
2023-03-05T10:03:43.396Z,2340.00
2023-03-05T10:04:43.348Z,2372.00
2023-03-05T10:05:43.333Z,2400.00
2023-03-05T10:06:43.400Z,2412.00
2023-03-05T10:07:43.344Z,2432.00
2023-03-05T10:08:43.338Z,2440.00
2023-03-05T10:09:43.289Z,2428.00
2023-03-05T10:10:43.313Z,2424.00
2023-03-05T10:11:43.290Z,2448.00
2023-03-05T10:12:43.261Z,2524.00
2023-03-05T10:13:43.240Z,2548.00
2023-03-05T10:14:43.293Z,2588.00
2023-03-05T10:15:43.251Z,2632.00
2023-03-05T10:16:43.228Z,2648.00
2023-03-05T10:17:43.214Z,2668.00
2023-03-05T10:18:43.193Z,2688.00
2023-03-05T10:19:43.210Z,2712.00
2023-03-05T10:20:43.182Z,2736.00
2023-03-05T10:21:43.171Z,2760.00
2023-03-05T10:22:43.195Z,2796.00
2023-03-05T10:23:43.134Z,2844.00
2023-03-05T10:24:43.123Z,2880.00
2023-03-05T10:25:43.142Z,2900.00
2023-03-05T10:26:43.116Z,2928.00
2023-03-05T10:27:43.141Z,2948.00
2023-03-05T10:28:43.090Z,2996.00
2023-03-05T10:29:43.070Z,3028.00
2023-03-05T10:30:43.060Z,3056.00
2023-03-05T10:31:43.141Z,3120.00
2023-03-05T10:32:43.111Z,3208.00
2023-03-05T10:33:43.041Z,3296.00
2023-03-05T10:34:43.011Z,3400.00
2023-03-05T10:35:43.044Z,3532.00
2023-03-05T10:36:42.985Z,3640.00
2023-03-05T10:37:42.994Z,3780.00
2023-03-05T10:38:42.970Z,3920.00
2023-03-05T10:39:42.944Z,4004.00
2023-03-05T10:40:42.945Z,4092.00
2023-03-05T10:41:42.946Z,4160.00
2023-03-05T10:42:42.925Z,4220.00
2023-03-05T10:43:42.917Z,4276.00
2023-03-05T10:44:42.893Z,4308.00
2023-03-05T10:45:42.967Z,4336.00
2023-03-05T10:46:42.879Z,4376.00
2023-03-05T10:47:42.857Z,4424.00
2023-03-05T10:48:42.905Z,4512.00
2023-03-05T10:49:42.825Z,4584.00
2023-03-05T10:50:42.846Z,4612.00
2023-03-05T10:51:42.821Z,4600.00
2023-03-05T10:52:42.809Z,4540.00
2023-03-05T10:53:42.808Z,4500.00
2023-03-05T10:54:42.826Z,4476.00
2023-03-05T10:55:42.777Z,4476.00
2023-03-05T10:56:42.776Z,4476.00
2023-03-05T10:57:42.740Z,4480.00
2023-03-05T10:58:42.723Z,4488.00
2023-03-05T10:59:42.771Z,4480.00
2023-03-05T11:00:42.707Z,4476.00
2023-03-05T11:01:42.741Z,4436.00
2023-03-05T11:02:42.762Z,4348.00
2023-03-05T11:03:42.678Z,4240.00
2023-03-05T11:04:42.666Z,4096.00
2023-03-05T11:05:42.667Z,3924.00
2023-03-05T11:06:42.637Z,3748.00
2023-03-05T11:07:42.622Z,3580.00
2023-03-05T11:08:42.612Z,3460.00
2023-03-05T11:09:42.599Z,3328.00
2023-03-05T11:10:42.612Z,3204.00
2023-03-05T11:11:42.618Z,3108.00
2023-03-05T11:12:42.564Z,3004.00
2023-03-05T11:13:42.614Z,2856.00
2023-03-05T11:14:42.538Z,2740.00
2023-03-05T11:15:42.553Z,2656.00
2023-03-05T11:16:42.617Z,2560.00
2023-03-05T11:17:42.863Z,2448.00
2023-03-05T11:18:42.497Z,2324.00
2023-03-05T11:19:42.485Z,2236.00
2023-03-05T11:20:42.475Z,2168.00
2023-03-05T11:21:42.466Z,2092.00
2023-03-05T11:22:42.479Z,2012.00
2023-03-05T11:23:42.434Z,1904.00
2023-03-05T11:24:42.435Z,1800.00
2023-03-05T11:25:42.463Z,1724.00
2023-03-05T11:26:42.410Z,1672.00
2023-03-05T11:27:42.385Z,1656.00
2023-03-05T11:28:42.445Z,1652.00
2023-03-05T11:29:42.377Z,1652.00
2023-03-05T11:30:42.390Z,1640.00
2023-03-05T11:31:42.346Z,1644.00
2023-03-05T11:32:42.343Z,1652.00
2023-03-05T11:33:42.359Z,1656.00
2023-03-05T11:34:42.347Z,1656.00
2023-03-05T11:35:42.375Z,1644.00
2023-03-05T11:36:42.393Z,1636.00
2023-03-05T11:37:42.286Z,1604.00
2023-03-05T11:38:42.289Z,1560.00
2023-03-05T11:39:42.315Z,1516.00
2023-03-05T11:40:42.352Z,1476.00
2023-03-05T11:41:42.242Z,1460.00
2023-03-05T11:42:42.229Z,1440.00
2023-03-05T11:43:42.213Z,1412.00
2023-03-05T11:44:42.217Z,1396.00
2023-03-05T11:45:42.258Z,1376.00
2023-03-05T11:46:42.181Z,1356.00
2023-03-05T11:47:42.192Z,1340.00
2023-03-05T11:48:42.157Z,1324.00
2023-03-05T11:49:42.151Z,1304.00
2023-03-05T11:50:42.172Z,1292.00
2023-03-05T11:51:42.139Z,1272.00
2023-03-05T11:52:42.100Z,1256.00
2023-03-05T11:53:42.111Z,1244.00
2023-03-05T11:54:42.105Z,1236.00
2023-03-05T11:55:42.113Z,1224.00
2023-03-05T11:56:42.115Z,1208.00
2023-03-05T11:57:42.061Z,1196.00
2023-03-05T11:58:42.047Z,1184.00
2023-03-05T11:59:42.031Z,1196.00
2023-03-05T12:00:42.022Z,1228.00
2023-03-05T12:01:42.035Z,1264.00
2023-03-05T12:02:42.037Z,1292.00
2023-03-05T12:03:42.027Z,1304.00
2023-03-05T12:04:41.974Z,1344.00
2023-03-05T12:05:41.946Z,1396.00
2023-03-05T12:06:42.533Z,1484.00
2023-03-05T12:07:41.980Z,1588.00
2023-03-05T12:08:41.931Z,1712.00
2023-03-05T12:09:42.354Z,1852.00
2023-03-05T12:10:42.009Z,1992.00
2023-03-05T12:11:42.250Z,2160.00
2023-03-05T12:12:42.149Z,2376.00
2023-03-05T12:13:43.050Z,2624.00
2023-03-05T12:14:41.868Z,2880.00
2023-03-05T12:15:42.083Z,3156.00
2023-03-05T12:16:41.828Z,3352.00
2023-03-05T12:17:42.251Z,3432.00
2023-03-05T12:18:41.830Z,3456.00
2023-03-05T12:19:41.841Z,3476.00
2023-03-05T12:20:42.028Z,3500.00
2023-03-05T12:21:41.836Z,3528.00
2023-03-05T12:22:42.021Z,3536.00
2023-03-05T12:23:42.073Z,3536.00
2023-03-05T12:24:41.792Z,3532.00
2023-03-05T12:25:41.817Z,3512.00
2023-03-05T12:26:41.979Z,3460.00
2023-03-05T12:27:42.365Z,3384.00
2023-03-05T12:28:41.815Z,3276.00
2023-03-05T12:29:41.701Z,3172.00
2023-03-05T12:30:42.292Z,3064.00
2023-03-05T12:31:41.851Z,2956.00
2023-03-05T12:32:41.859Z,2836.00
2023-03-05T12:33:41.637Z,2748.00
2023-03-05T12:34:41.865Z,2684.00
2023-03-05T12:35:41.695Z,2612.00
2023-03-05T12:36:41.679Z,2548.00
2023-03-05T12:37:41.654Z,2468.00
2023-03-05T12:38:41.598Z,2376.00
2023-03-05T12:39:41.800Z,2276.00
2023-03-05T12:40:41.550Z,2176.00
2023-03-05T12:41:41.838Z,2088.00
2023-03-05T12:42:41.580Z,2008.00
2023-03-05T12:43:41.561Z,1920.00